AFR3A DGAA-GOBD
Flight info
| Callsign | AFR3A |
|---|---|
| Flight time | 2h 44m |
| Altitude | 24000 |
| Route | MIMTI1D MIMTI B600 TEMBI/N0481F400 UB600 AD UR979 ERIDI ERIDI1G |
| Aircraft | B772/H-SDE2E3FGHIJ5LORVWXY/LB1D1 |
Departure
| Time | 2026-05-04 16:15 |
|---|---|
| Airport | Kotoka International Airport (DGAA) |
Arrival
| Time | 2026-05-04 19:00 |
|---|---|
| Airport | Blaise Diagne International Airport (GOBD) |
| Time | Latitude | Longitude | Altitude | Speed | Heading |
|---|---|---|---|---|---|
| 2026-05-04 15:51 | 5.60221 | -0.17162 | 216 ft | 0 kts | 292° |
| 2026-05-04 16:08 | 5.60189 | -0.17103 | 225 ft | 4 kts | 311° |
| 2026-05-04 16:09 | 5.60152 | -0.17083 | 215 ft | 0 kts | 22° |
| 2026-05-04 16:11 | 5.60190 | -0.17068 | 223 ft | 17 kts | 21° |
| 2026-05-04 16:12 | 5.60808 | -0.16810 | 229 ft | 40 kts | 22° |
| 2026-05-04 16:12 | 5.61398 | -0.16568 | 225 ft | 23 kts | 22° |
| 2026-05-04 16:13 | 5.61544 | -0.16501 | 222 ft | 0 kts | 34° |
| 2026-05-04 16:13 | 5.61611 | -0.16425 | 223 ft | 15 kts | 73° |
| 2026-05-04 16:14 | 5.61404 | -0.16359 | 226 ft | 21 kts | 203° |
| 2026-05-04 16:14 | 5.60503 | -0.16731 | 227 ft | 164 kts | 202° |
| 2026-05-04 16:15 | 5.56460 | -0.18148 | 2110 ft | 282 kts | 195° |
| 2026-05-04 16:16 | 5.52748 | -0.19301 | 4028 ft | 270 kts | 214° |
| 2026-05-04 16:16 | 5.51193 | -0.24355 | 7148 ft | 268 kts | 259° |
| 2026-05-04 16:17 | 5.50241 | -0.28017 | 9192 ft | 274 kts | 253° |
| 2026-05-04 16:18 | 5.49334 | -0.33996 | 10959 ft | 327 kts | 270° |
| 2026-05-04 16:18 | 5.49353 | -0.36336 | 11650 ft | 341 kts | 270° |
| 2026-05-04 16:19 | 5.49366 | -0.43661 | 14005 ft | 356 kts | 269° |
| 2026-05-04 16:19 | 5.49314 | -0.48666 | 14008 ft | 357 kts | 269° |
| 2026-05-04 16:20 | 5.49212 | -0.56217 | 15005 ft | 365 kts | 269° |
| 2026-05-04 16:20 | 5.49140 | -0.61312 | 16443 ft | 369 kts | 269° |
| 2026-05-04 16:21 | 5.49261 | -0.69135 | 18898 ft | 381 kts | 275° |
| 2026-05-04 16:22 | 5.49854 | -0.74484 | 20347 ft | 390 kts | 276° |
| 2026-05-04 16:22 | 5.50737 | -0.82722 | 22358 ft | 402 kts | 276° |
| 2026-05-04 16:23 | 5.51568 | -0.91213 | 24214 ft | 413 kts | 275° |
| 2026-05-04 16:24 | 5.52696 | -1.02901 | 26481 ft | 428 kts | 275° |
| 2026-05-04 16:25 | 5.53274 | -1.08897 | 27545 ft | 435 kts | 275° |
| 2026-05-04 16:26 | 5.53667 | -1.21182 | 29428 ft | 449 kts | 264° |
| 2026-05-04 16:26 | 5.52533 | -1.30563 | 30804 ft | 457 kts | 263° |
| 2026-05-04 16:27 | 5.51871 | -1.36952 | 31597 ft | 463 kts | 264° |
| 2026-05-04 16:28 | 5.50960 | -1.46683 | 32641 ft | 470 kts | 264° |
| 2026-05-04 16:28 | 5.50041 | -1.56501 | 33846 ft | 469 kts | 264° |
| 2026-05-04 16:29 | 5.48815 | -1.69484 | 35500 ft | 466 kts | 264° |
| 2026-05-04 16:30 | 5.47924 | -1.79172 | 36624 ft | 464 kts | 265° |
| 2026-05-04 16:31 | 5.47341 | -1.85624 | 37278 ft | 464 kts | 265° |
| 2026-05-04 16:31 | 5.46465 | -1.95266 | 38182 ft | 465 kts | 265° |
| 2026-05-04 16:32 | 5.45579 | -2.04960 | 39065 ft | 464 kts | 265° |
| 2026-05-04 16:33 | 5.44990 | -2.11405 | 39591 ft | 464 kts | 265° |
| 2026-05-04 16:33 | 5.44400 | -2.17854 | 40097 ft | 464 kts | 265° |
| 2026-05-04 16:34 | 5.43808 | -2.24311 | 40542 ft | 465 kts | 265° |
| 2026-05-04 16:34 | 5.43512 | -2.27539 | 40781 ft | 464 kts | 265° |
| 2026-05-04 16:35 | 5.42627 | -2.37172 | 41409 ft | 465 kts | 265° |
| 2026-05-04 16:35 | 5.41735 | -2.46862 | 41920 ft | 467 kts | 264° |
| 2026-05-04 16:36 | 5.40833 | -2.56645 | 41994 ft | 469 kts | 265° |
| 2026-05-04 16:37 | 5.39940 | -2.66323 | 41999 ft | 462 kts | 264° |
| 2026-05-04 16:38 | 5.38759 | -2.79098 | 42003 ft | 461 kts | 265° |
| 2026-05-04 16:39 | 5.37281 | -2.95160 | 42003 ft | 463 kts | 264° |
| 2026-05-04 16:40 | 5.36090 | -3.08055 | 42003 ft | 464 kts | 264° |
| 2026-05-04 16:41 | 5.34598 | -3.24171 | 42001 ft | 465 kts | 264° |
| 2026-05-04 16:43 | 5.33099 | -3.40327 | 42001 ft | 465 kts | 264° |
| 2026-05-04 16:43 | 5.32196 | -3.50019 | 42001 ft | 465 kts | 264° |
| 2026-05-04 16:45 | 5.30390 | -3.69375 | 42000 ft | 464 kts | 264° |
| 2026-05-04 16:46 | 5.28883 | -3.85483 | 42001 ft | 464 kts | 264° |
| 2026-05-04 16:47 | 5.29287 | -3.91859 | 42002 ft | 461 kts | 288° |
| 2026-05-04 16:47 | 5.32278 | -3.97436 | 42007 ft | 458 kts | 307° |
| 2026-05-04 16:48 | 5.39976 | -4.07729 | 42008 ft | 464 kts | 306° |
| 2026-05-04 16:49 | 5.47649 | -4.18217 | 42005 ft | 467 kts | 306° |
| 2026-05-04 16:50 | 5.55324 | -4.28759 | 42000 ft | 467 kts | 306° |
| 2026-05-04 16:51 | 5.61071 | -4.36651 | 42000 ft | 466 kts | 306° |
| 2026-05-04 16:52 | 5.68680 | -4.47103 | 42000 ft | 464 kts | 306° |
| 2026-05-04 16:53 | 5.74387 | -4.54947 | 42001 ft | 463 kts | 306° |
| 2026-05-04 16:54 | 5.81988 | -4.65398 | 42001 ft | 463 kts | 306° |
| 2026-05-04 16:55 | 5.93392 | -4.81089 | 42002 ft | 464 kts | 306° |
| 2026-05-04 16:56 | 6.02881 | -4.94156 | 42001 ft | 464 kts | 306° |
| 2026-05-04 16:57 | 6.08588 | -5.02020 | 42001 ft | 464 kts | 306° |
| 2026-05-04 16:58 | 6.16202 | -5.12516 | 42001 ft | 465 kts | 306° |
| 2026-05-04 17:00 | 6.27621 | -5.28301 | 42002 ft | 465 kts | 306° |
| 2026-05-04 17:01 | 6.37108 | -5.41429 | 42001 ft | 466 kts | 306° |
| 2026-05-04 17:02 | 6.44720 | -5.51969 | 42001 ft | 465 kts | 306° |
| 2026-05-04 17:03 | 6.50427 | -5.59875 | 42001 ft | 465 kts | 306° |
| 2026-05-04 17:03 | 6.56129 | -5.67779 | 42001 ft | 465 kts | 306° |
| 2026-05-04 17:04 | 6.63706 | -5.78287 | 42001 ft | 465 kts | 306° |
| 2026-05-04 17:05 | 6.71304 | -5.88833 | 42001 ft | 465 kts | 306° |
| 2026-05-04 17:06 | 6.76992 | -5.96753 | 42001 ft | 466 kts | 305° |
| 2026-05-04 17:07 | 6.81333 | -6.02996 | 42001 ft | 466 kts | 304° |
| 2026-05-04 17:07 | 6.86255 | -6.10121 | 42001 ft | 466 kts | 305° |
| 2026-05-04 17:08 | 6.91818 | -6.18145 | 42001 ft | 466 kts | 305° |
| 2026-05-04 17:09 | 6.95532 | -6.23495 | 42001 ft | 466 kts | 305° |
| 2026-05-04 17:09 | 6.99222 | -6.28814 | 42001 ft | 466 kts | 305° |
| 2026-05-04 17:10 | 7.07871 | -6.41287 | 42001 ft | 466 kts | 305° |
| 2026-05-04 17:11 | 7.11578 | -6.46637 | 42001 ft | 466 kts | 305° |
| 2026-05-04 17:12 | 7.17139 | -6.54665 | 42001 ft | 466 kts | 305° |
| 2026-05-04 17:13 | 7.26373 | -6.68005 | 42001 ft | 466 kts | 305° |
| 2026-05-04 17:14 | 7.33776 | -6.78708 | 42001 ft | 466 kts | 305° |
| 2026-05-04 17:15 | 7.39326 | -6.86736 | 42001 ft | 466 kts | 305° |
| 2026-05-04 17:16 | 7.46728 | -6.97450 | 42002 ft | 466 kts | 305° |
| 2026-05-04 17:17 | 7.54127 | -7.08167 | 42001 ft | 466 kts | 304° |
| 2026-05-04 17:18 | 7.61530 | -7.18896 | 42001 ft | 466 kts | 304° |
| 2026-05-04 17:19 | 7.68906 | -7.29596 | 41995 ft | 467 kts | 304° |
| 2026-05-04 17:20 | 7.76324 | -7.40362 | 42003 ft | 468 kts | 304° |
| 2026-05-04 17:20 | 7.81898 | -7.48458 | 42001 ft | 469 kts | 304° |
| 2026-05-04 17:21 | 7.89334 | -7.59265 | 42000 ft | 469 kts | 304° |
| 2026-05-04 17:22 | 7.93047 | -7.64665 | 42001 ft | 468 kts | 304° |
| 2026-05-04 17:23 | 8.00437 | -7.75415 | 42000 ft | 467 kts | 304° |
| 2026-05-04 17:24 | 8.05988 | -7.83498 | 42001 ft | 467 kts | 304° |
| 2026-05-04 17:25 | 8.13383 | -7.94272 | 42001 ft | 467 kts | 304° |
| 2026-05-04 17:26 | 8.20778 | -8.05053 | 42001 ft | 467 kts | 304° |
| 2026-05-04 17:27 | 8.30002 | -8.18513 | 42001 ft | 468 kts | 304° |
| 2026-05-04 17:28 | 8.37404 | -8.29325 | 42001 ft | 468 kts | 304° |
| 2026-05-04 17:29 | 8.48552 | -8.45591 | 42007 ft | 470 kts | 304° |
| 2026-05-04 17:31 | 8.57833 | -8.59153 | 42001 ft | 470 kts | 304° |
| 2026-05-04 17:32 | 8.67118 | -8.72735 | 42001 ft | 469 kts | 304° |
| 2026-05-04 17:33 | 8.74530 | -8.83588 | 42001 ft | 469 kts | 304° |
| 2026-05-04 17:34 | 8.81905 | -8.94395 | 42002 ft | 469 kts | 304° |
| 2026-05-04 17:35 | 8.91156 | -9.07963 | 41998 ft | 469 kts | 304° |
| 2026-05-04 17:36 | 8.94859 | -9.13399 | 42003 ft | 469 kts | 304° |
| 2026-05-04 17:36 | 8.98561 | -9.18836 | 42002 ft | 470 kts | 304° |
| 2026-05-04 17:37 | 9.02269 | -9.24284 | 42002 ft | 470 kts | 304° |
| 2026-05-04 17:37 | 9.05989 | -9.29728 | 42001 ft | 470 kts | 305° |
| 2026-05-04 17:38 | 9.09829 | -9.35084 | 42002 ft | 470 kts | 306° |
| 2026-05-04 17:38 | 9.13707 | -9.40415 | 42001 ft | 470 kts | 306° |
| 2026-05-04 17:39 | 9.19473 | -9.48400 | 42000 ft | 470 kts | 306° |
| 2026-05-04 17:39 | 9.23321 | -9.53754 | 42001 ft | 470 kts | 306° |
| 2026-05-04 17:40 | 9.27163 | -9.59102 | 42003 ft | 470 kts | 306° |
| 2026-05-04 17:40 | 9.31007 | -9.64455 | 42000 ft | 469 kts | 306° |
| 2026-05-04 17:41 | 9.34841 | -9.69796 | 42002 ft | 469 kts | 306° |
| 2026-05-04 17:41 | 9.38672 | -9.75134 | 42000 ft | 468 kts | 306° |
| 2026-05-04 17:42 | 9.42472 | -9.80431 | 42002 ft | 468 kts | 306° |
| 2026-05-04 17:42 | 9.46293 | -9.85761 | 42000 ft | 467 kts | 306° |
| 2026-05-04 17:43 | 9.50111 | -9.91088 | 42002 ft | 467 kts | 306° |
| 2026-05-04 17:43 | 9.53930 | -9.96420 | 42000 ft | 467 kts | 306° |
| 2026-05-04 17:44 | 9.57743 | -10.01745 | 42001 ft | 467 kts | 306° |
| 2026-05-04 17:44 | 9.61557 | -10.07074 | 42002 ft | 467 kts | 306° |
| 2026-05-04 17:45 | 9.65368 | -10.12406 | 42001 ft | 467 kts | 306° |
| 2026-05-04 17:45 | 9.69178 | -10.17740 | 42002 ft | 467 kts | 306° |
| 2026-05-04 17:46 | 9.72987 | -10.23077 | 42001 ft | 467 kts | 306° |
| 2026-05-04 17:46 | 9.76797 | -10.28418 | 42002 ft | 467 kts | 306° |
| 2026-05-04 17:47 | 9.80608 | -10.33762 | 42001 ft | 468 kts | 306° |
| 2026-05-04 17:47 | 9.84393 | -10.39072 | 42001 ft | 468 kts | 306° |
| 2026-05-04 17:48 | 9.88201 | -10.44418 | 42001 ft | 468 kts | 306° |
| 2026-05-04 17:48 | 9.92011 | -10.49768 | 42001 ft | 468 kts | 306° |
| 2026-05-04 17:49 | 9.95817 | -10.55115 | 42001 ft | 468 kts | 306° |
| 2026-05-04 17:49 | 9.99624 | -10.60467 | 42002 ft | 468 kts | 306° |
| 2026-05-04 17:50 | 10.03429 | -10.65817 | 42001 ft | 468 kts | 306° |
| 2026-05-04 17:50 | 10.07230 | -10.71166 | 42001 ft | 467 kts | 306° |
| 2026-05-04 17:51 | 10.10884 | -10.76625 | 42001 ft | 467 kts | 302° |
| 2026-05-04 17:51 | 10.14269 | -10.82250 | 42001 ft | 467 kts | 301° |
| 2026-05-04 17:52 | 10.17631 | -10.87844 | 42002 ft | 467 kts | 301° |
| 2026-05-04 17:52 | 10.21036 | -10.93461 | 42001 ft | 467 kts | 301° |
| 2026-05-04 17:53 | 10.24445 | -10.99077 | 42001 ft | 467 kts | 302° |
| 2026-05-04 17:53 | 10.28256 | -11.04412 | 42007 ft | 467 kts | 308° |
| 2026-05-04 17:54 | 10.32260 | -11.09606 | 42002 ft | 467 kts | 308° |
| 2026-05-04 17:54 | 10.36256 | -11.14817 | 42000 ft | 468 kts | 308° |
| 2026-05-04 17:55 | 10.40234 | -11.20049 | 42000 ft | 468 kts | 307° |
| 2026-05-04 17:55 | 10.44211 | -11.25295 | 42002 ft | 469 kts | 307° |
| 2026-05-04 17:56 | 10.48197 | -11.30555 | 42004 ft | 469 kts | 307° |
| 2026-05-04 17:56 | 10.52154 | -11.35778 | 41998 ft | 470 kts | 307° |
| 2026-05-04 17:57 | 10.56142 | -11.41043 | 42002 ft | 470 kts | 307° |
| 2026-05-04 17:57 | 10.60135 | -11.46319 | 42004 ft | 471 kts | 307° |
| 2026-05-04 17:58 | 10.64133 | -11.51604 | 41999 ft | 471 kts | 307° |
| 2026-05-04 17:58 | 10.68114 | -11.56900 | 42004 ft | 471 kts | 307° |
| 2026-05-04 17:59 | 10.71975 | -11.62283 | 42001 ft | 471 kts | 306° |
| 2026-05-04 18:00 | 10.77718 | -11.70376 | 41996 ft | 470 kts | 306° |
| 2026-05-04 18:00 | 10.81554 | -11.75752 | 42002 ft | 469 kts | 306° |
| 2026-05-04 18:01 | 10.85368 | -11.81087 | 41998 ft | 469 kts | 306° |
| 2026-05-04 18:01 | 10.89201 | -11.86450 | 42002 ft | 469 kts | 306° |
| 2026-05-04 18:02 | 10.94953 | -11.94506 | 42002 ft | 469 kts | 306° |
| 2026-05-04 18:02 | 10.98790 | -11.99884 | 42002 ft | 469 kts | 306° |
| 2026-05-04 18:03 | 11.02626 | -12.05265 | 42001 ft | 470 kts | 306° |
| 2026-05-04 18:03 | 11.06463 | -12.10647 | 42003 ft | 470 kts | 306° |
| 2026-05-04 18:04 | 11.10296 | -12.16028 | 42001 ft | 470 kts | 306° |
| 2026-05-04 18:05 | 11.16057 | -12.24121 | 42003 ft | 471 kts | 306° |
| 2026-05-04 18:05 | 11.19878 | -12.29493 | 42004 ft | 472 kts | 306° |
| 2026-05-04 18:06 | 11.25650 | -12.37617 | 42001 ft | 472 kts | 305° |
| 2026-05-04 18:06 | 11.29422 | -12.43103 | 42001 ft | 473 kts | 304° |
| 2026-05-04 18:07 | 11.32526 | -12.47683 | 42001 ft | 473 kts | 304° |
| 2026-05-04 18:07 | 11.36267 | -12.53190 | 42000 ft | 473 kts | 304° |
| 2026-05-04 18:08 | 11.40012 | -12.58688 | 41999 ft | 472 kts | 304° |
| 2026-05-04 18:08 | 11.44357 | -12.65060 | 41997 ft | 470 kts | 304° |
| 2026-05-04 18:09 | 11.51201 | -12.75108 | 42005 ft | 468 kts | 304° |
| 2026-05-04 18:10 | 11.54886 | -12.80521 | 41994 ft | 467 kts | 304° |
| 2026-05-04 18:10 | 11.58587 | -12.85963 | 42001 ft | 467 kts | 304° |
| 2026-05-04 18:11 | 11.62287 | -12.91406 | 42002 ft | 467 kts | 304° |
| 2026-05-04 18:11 | 11.65986 | -12.96850 | 42004 ft | 466 kts | 304° |
| 2026-05-04 18:12 | 11.69654 | -13.02252 | 42000 ft | 466 kts | 304° |
| 2026-05-04 18:12 | 11.73343 | -13.07688 | 42000 ft | 465 kts | 304° |
| 2026-05-04 18:13 | 11.77025 | -13.13116 | 42000 ft | 465 kts | 304° |
| 2026-05-04 18:14 | 11.82944 | -13.20926 | 42001 ft | 464 kts | 309° |
| 2026-05-04 18:14 | 11.87040 | -13.26013 | 42002 ft | 464 kts | 309° |
| 2026-05-04 18:15 | 11.95162 | -13.36196 | 42002 ft | 464 kts | 309° |
| 2026-05-04 18:16 | 11.99228 | -13.41321 | 42001 ft | 464 kts | 309° |
| 2026-05-04 18:16 | 12.03297 | -13.46449 | 42002 ft | 465 kts | 309° |
| 2026-05-04 18:17 | 12.09400 | -13.54146 | 42001 ft | 465 kts | 309° |
| 2026-05-04 18:18 | 12.15507 | -13.61853 | 42002 ft | 465 kts | 309° |
| 2026-05-04 18:18 | 12.19548 | -13.66958 | 42001 ft | 465 kts | 309° |
| 2026-05-04 18:19 | 12.25648 | -13.74667 | 42001 ft | 465 kts | 309° |
| 2026-05-04 18:19 | 12.29495 | -13.79982 | 42003 ft | 464 kts | 305° |
| 2026-05-04 18:20 | 12.33166 | -13.85422 | 42000 ft | 464 kts | 304° |
| 2026-05-04 18:20 | 12.36835 | -13.90865 | 42002 ft | 464 kts | 304° |
| 2026-05-04 18:21 | 12.40517 | -13.96292 | 42001 ft | 464 kts | 304° |
| 2026-05-04 18:21 | 12.44206 | -14.01718 | 42001 ft | 464 kts | 305° |
| 2026-05-04 18:22 | 12.47871 | -14.07111 | 42001 ft | 464 kts | 304° |
| 2026-05-04 18:22 | 12.51556 | -14.12537 | 42001 ft | 464 kts | 304° |
| 2026-05-04 18:23 | 12.55243 | -14.17970 | 42001 ft | 464 kts | 304° |
| 2026-05-04 18:23 | 12.58926 | -14.23400 | 42001 ft | 464 kts | 304° |
| 2026-05-04 18:24 | 12.62607 | -14.28832 | 42001 ft | 464 kts | 304° |
| 2026-05-04 18:24 | 12.66289 | -14.34267 | 42001 ft | 464 kts | 304° |
| 2026-05-04 18:25 | 12.69970 | -14.39706 | 42001 ft | 464 kts | 304° |
| 2026-05-04 18:25 | 12.73647 | -14.45140 | 42001 ft | 464 kts | 304° |
| 2026-05-04 18:26 | 12.77298 | -14.50541 | 42001 ft | 464 kts | 304° |
| 2026-05-04 18:26 | 12.80972 | -14.55986 | 42001 ft | 464 kts | 304° |
| 2026-05-04 18:27 | 12.84643 | -14.61431 | 42001 ft | 464 kts | 304° |
| 2026-05-04 18:27 | 12.88312 | -14.66876 | 42001 ft | 464 kts | 304° |
| 2026-05-04 18:28 | 12.91983 | -14.72326 | 42002 ft | 464 kts | 304° |
| 2026-05-04 18:28 | 12.95651 | -14.77777 | 42001 ft | 464 kts | 304° |
| 2026-05-04 18:29 | 12.99320 | -14.83231 | 42002 ft | 464 kts | 304° |
| 2026-05-04 18:29 | 13.02986 | -14.88686 | 42001 ft | 464 kts | 304° |
| 2026-05-04 18:30 | 13.08481 | -14.96866 | 42002 ft | 464 kts | 304° |
| 2026-05-04 18:31 | 13.12118 | -15.02286 | 42001 ft | 464 kts | 304° |
| 2026-05-04 18:31 | 13.15780 | -15.07746 | 42001 ft | 464 kts | 304° |
| 2026-05-04 18:32 | 13.19436 | -15.13196 | 42001 ft | 464 kts | 305° |
| 2026-05-04 18:32 | 13.23311 | -15.18496 | 42001 ft | 464 kts | 308° |
| 2026-05-04 18:33 | 13.27316 | -15.23697 | 42002 ft | 464 kts | 308° |
| 2026-05-04 18:33 | 13.31308 | -15.28911 | 42001 ft | 464 kts | 308° |
| 2026-05-04 18:34 | 13.35273 | -15.34148 | 42001 ft | 465 kts | 308° |
| 2026-05-04 18:34 | 13.39226 | -15.39394 | 42001 ft | 465 kts | 308° |
| 2026-05-04 18:35 | 13.43178 | -15.44645 | 42001 ft | 465 kts | 308° |
| 2026-05-04 18:35 | 13.47130 | -15.49897 | 42001 ft | 464 kts | 308° |
| 2026-05-04 18:36 | 13.51080 | -15.55148 | 42001 ft | 464 kts | 308° |
| 2026-05-04 18:36 | 13.55003 | -15.60365 | 41923 ft | 466 kts | 308° |
| 2026-05-04 18:36 | 13.57001 | -15.63025 | 41201 ft | 471 kts | 308° |
| 2026-05-04 18:37 | 13.58997 | -15.65683 | 40554 ft | 469 kts | 308° |
| 2026-05-04 18:37 | 13.60984 | -15.68329 | 39849 ft | 467 kts | 308° |
| 2026-05-04 18:37 | 13.62966 | -15.70968 | 39121 ft | 465 kts | 308° |
| 2026-05-04 18:37 | 13.64942 | -15.73601 | 38372 ft | 464 kts | 308° |
| 2026-05-04 18:38 | 13.66914 | -15.76229 | 37589 ft | 464 kts | 308° |
| 2026-05-04 18:38 | 13.68882 | -15.78853 | 36793 ft | 463 kts | 307° |
| 2026-05-04 18:38 | 13.70847 | -15.81474 | 35963 ft | 463 kts | 307° |
| 2026-05-04 18:38 | 13.72814 | -15.84097 | 35020 ft | 464 kts | 307° |
| 2026-05-04 18:39 | 13.74791 | -15.86735 | 34007 ft | 466 kts | 307° |
| 2026-05-04 18:39 | 13.76776 | -15.89385 | 32949 ft | 469 kts | 307° |
| 2026-05-04 18:39 | 13.78764 | -15.92039 | 31829 ft | 471 kts | 307° |
| 2026-05-04 18:39 | 13.80764 | -15.94711 | 30965 ft | 468 kts | 307° |
| 2026-05-04 18:40 | 13.82713 | -15.97315 | 30209 ft | 463 kts | 307° |
| 2026-05-04 18:40 | 13.84665 | -15.99924 | 29448 ft | 457 kts | 307° |
| 2026-05-04 18:40 | 13.86618 | -16.02535 | 28670 ft | 453 kts | 307° |
| 2026-05-04 18:40 | 13.88507 | -16.05062 | 27933 ft | 449 kts | 307° |
| 2026-05-04 18:41 | 13.90404 | -16.07599 | 27158 ft | 444 kts | 307° |
| 2026-05-04 18:41 | 13.92278 | -16.10107 | 26392 ft | 440 kts | 307° |
| 2026-05-04 18:41 | 13.94087 | -16.12526 | 25670 ft | 435 kts | 307° |
| 2026-05-04 18:41 | 13.95924 | -16.14983 | 24938 ft | 431 kts | 308° |
| 2026-05-04 18:42 | 13.97743 | -16.17415 | 24202 ft | 426 kts | 308° |
| 2026-05-04 18:42 | 13.98900 | -16.18963 | 23749 ft | 423 kts | 308° |
| 2026-05-04 18:43 | 13.99501 | -16.19767 | 23502 ft | 422 kts | 308° |
| 2026-05-04 18:43 | 14.01284 | -16.22155 | 22792 ft | 417 kts | 307° |
| 2026-05-04 18:43 | 14.03043 | -16.24512 | 22093 ft | 413 kts | 307° |
| 2026-05-04 18:44 | 14.04785 | -16.26849 | 21406 ft | 409 kts | 307° |
| 2026-05-04 18:44 | 14.05929 | -16.28384 | 20962 ft | 407 kts | 307° |
| 2026-05-04 18:44 | 14.08223 | -16.31462 | 20068 ft | 403 kts | 307° |
| 2026-05-04 18:44 | 14.09922 | -16.33743 | 19418 ft | 400 kts | 307° |
| 2026-05-04 18:45 | 14.11608 | -16.36007 | 18775 ft | 397 kts | 307° |
| 2026-05-04 18:45 | 14.13283 | -16.38256 | 18146 ft | 394 kts | 307° |
| 2026-05-04 18:45 | 14.14922 | -16.40459 | 17522 ft | 392 kts | 307° |
| 2026-05-04 18:45 | 14.16597 | -16.42708 | 16895 ft | 389 kts | 307° |
| 2026-05-04 18:46 | 14.18218 | -16.44887 | 16283 ft | 387 kts | 307° |
| 2026-05-04 18:46 | 14.19848 | -16.47079 | 15685 ft | 385 kts | 307° |
| 2026-05-04 18:46 | 14.21474 | -16.49265 | 15070 ft | 382 kts | 307° |
| 2026-05-04 18:46 | 14.23087 | -16.51434 | 14461 ft | 380 kts | 307° |
| 2026-05-04 18:47 | 14.24711 | -16.53620 | 13857 ft | 378 kts | 307° |
| 2026-05-04 18:47 | 14.26285 | -16.55738 | 13268 ft | 376 kts | 307° |
| 2026-05-04 18:47 | 14.27871 | -16.57873 | 12664 ft | 374 kts | 307° |
| 2026-05-04 18:47 | 14.29448 | -16.59997 | 12069 ft | 372 kts | 307° |
| 2026-05-04 18:48 | 14.31021 | -16.62117 | 11463 ft | 370 kts | 307° |
| 2026-05-04 18:48 | 14.32577 | -16.64213 | 10902 ft | 368 kts | 307° |
| 2026-05-04 18:48 | 14.34113 | -16.66282 | 10650 ft | 356 kts | 307° |
| 2026-05-04 18:48 | 14.35592 | -16.68277 | 10467 ft | 345 kts | 307° |
| 2026-05-04 18:49 | 14.37026 | -16.70209 | 10293 ft | 333 kts | 307° |
| 2026-05-04 18:49 | 14.38412 | -16.72078 | 10166 ft | 323 kts | 307° |
| 2026-05-04 18:49 | 14.39753 | -16.73888 | 10032 ft | 313 kts | 307° |
| 2026-05-04 18:49 | 14.41063 | -16.75659 | 9823 ft | 306 kts | 307° |
| 2026-05-04 18:50 | 14.42338 | -16.77381 | 9614 ft | 300 kts | 307° |
| 2026-05-04 18:50 | 14.43578 | -16.79055 | 9513 ft | 287 kts | 307° |
| 2026-05-04 18:50 | 14.44776 | -16.80671 | 9250 ft | 282 kts | 307° |
| 2026-05-04 18:50 | 14.45977 | -16.82292 | 8770 ft | 286 kts | 307° |
| 2026-05-04 18:51 | 14.46990 | -16.84017 | 8236 ft | 280 kts | 287° |
| 2026-05-04 18:51 | 14.47007 | -16.86012 | 7739 ft | 283 kts | 252° |
| 2026-05-04 18:51 | 14.45921 | -16.87678 | 7246 ft | 282 kts | 220° |
| 2026-05-04 18:51 | 14.44408 | -16.88923 | 6830 ft | 277 kts | 221° |
| 2026-05-04 18:52 | 14.43084 | -16.90350 | 6496 ft | 275 kts | 231° |
| 2026-05-04 18:52 | 14.42005 | -16.91969 | 6177 ft | 273 kts | 239° |
| 2026-05-04 18:52 | 14.41100 | -16.93682 | 5848 ft | 271 kts | 243° |
| 2026-05-04 18:52 | 14.40290 | -16.95434 | 5523 ft | 270 kts | 245° |
| 2026-05-04 18:53 | 14.39564 | -16.97186 | 5207 ft | 269 kts | 248° |
| 2026-05-04 18:53 | 14.38924 | -16.98992 | 4878 ft | 267 kts | 252° |
| 2026-05-04 18:53 | 14.38411 | -17.00829 | 4560 ft | 266 kts | 256° |
| 2026-05-04 18:53 | 14.38038 | -17.02697 | 4229 ft | 265 kts | 261° |
| 2026-05-04 18:54 | 14.37942 | -17.04553 | 3875 ft | 257 kts | 280° |
| 2026-05-04 18:54 | 14.38726 | -17.06182 | 3543 ft | 256 kts | 315° |
| 2026-05-04 18:54 | 14.40209 | -17.07106 | 3204 ft | 245 kts | 346° |
| 2026-05-04 18:54 | 14.41848 | -17.07157 | 3007 ft | 229 kts | 6° |
| 2026-05-04 18:55 | 14.43428 | -17.07053 | 2998 ft | 228 kts | 0° |
| 2026-05-04 18:55 | 14.46595 | -17.07089 | 2986 ft | 219 kts | 359° |
| 2026-05-04 18:55 | 14.48074 | -17.07104 | 2978 ft | 207 kts | 359° |
| 2026-05-04 18:56 | 14.49501 | -17.07117 | 2989 ft | 203 kts | 359° |
| 2026-05-04 18:56 | 14.50907 | -17.07130 | 2988 ft | 201 kts | 359° |
| 2026-05-04 18:56 | 14.52314 | -17.07143 | 2854 ft | 205 kts | 359° |
| 2026-05-04 18:56 | 14.53718 | -17.07156 | 2564 ft | 197 kts | 359° |
| 2026-05-04 18:57 | 14.55046 | -17.07169 | 2316 ft | 185 kts | 359° |
| 2026-05-04 18:57 | 14.56315 | -17.07181 | 2075 ft | 180 kts | 359° |
| 2026-05-04 18:57 | 14.57566 | -17.07192 | 1845 ft | 181 kts | 359° |
| 2026-05-04 18:57 | 14.58796 | -17.07204 | 1593 ft | 171 kts | 359° |
| 2026-05-04 18:58 | 14.59953 | -17.07215 | 1413 ft | 161 kts | 359° |
| 2026-05-04 18:58 | 14.61028 | -17.07225 | 1215 ft | 147 kts | 359° |
| 2026-05-04 18:58 | 14.62014 | -17.07235 | 1012 ft | 137 kts | 359° |
| 2026-05-04 18:58 | 14.62948 | -17.07243 | 828 ft | 137 kts | 359° |
| 2026-05-04 18:59 | 14.63907 | -17.07254 | 644 ft | 138 kts | 359° |
| 2026-05-04 18:59 | 14.64866 | -17.07269 | 463 ft | 138 kts | 360° |
| 2026-05-04 18:59 | 14.65825 | -17.07269 | 314 ft | 138 kts | 359° |
| 2026-05-04 18:59 | 14.66706 | -17.07278 | 305 ft | 112 kts | 360° |
| 2026-05-04 19:00 | 14.67303 | -17.07284 | 299 ft | 52 kts | 0° |
| 2026-05-04 19:00 | 14.67582 | -17.07270 | 298 ft | 29 kts | 5° |
| 2026-05-04 19:00 | 14.67764 | -17.07211 | 294 ft | 24 kts | 35° |
| 2026-05-04 19:00 | 14.58965 | -17.07206 | 1560 ft | 170 kts | 359° |
| 2026-05-04 19:01 | 14.60198 | -17.07217 | 1368 ft | 159 kts | 359° |
| 2026-05-04 19:01 | 14.61374 | -17.07229 | 1138 ft | 143 kts | 359° |
| 2026-05-04 19:01 | 14.62516 | -17.07239 | 924 ft | 135 kts | 359° |
| 2026-05-04 19:01 | 14.63536 | -17.07248 | 609 ft | 148 kts | 359° |
| 2026-05-04 19:02 | 14.64598 | -17.07248 | 352 ft | 154 kts | 0° |
| 2026-05-04 19:02 | 14.65288 | -17.07236 | 346 ft | 147 kts | 1° |
| 2026-05-04 19:02 | 14.65967 | -17.07216 | 288 ft | 122 kts | 2° |
| 2026-05-04 19:02 | 14.66451 | -17.07201 | 296 ft | 14 kts | 1° |
| 2026-05-04 19:03 | 14.66457 | -17.07201 | 298 ft | 0 kts | 1° |